Ana Sayfa
METAR-TAF:

METAR-TAF

Havaalanları :

Ambon, Endonezya

Enlem: 03-42S, Boylam: 128-05E, yükseklik: 12 m

Güncel hava durumu gözlemi

Rapor saat 12:00 UTC de 9 saat ve 21 dakika önce yapıldı.
Rüzgar kuzeybatıdan 7 kt
Sıcaklık 28°C
Nem 79%
Basınç 1009 hPa
Görüş mesafesi 10 km veya daha fazla
1900 ft yükseklikte az bulutlu

METAR: WAPP 241200Z 32007KT 9999 FEW019 28/24 Q1009 NOSIG

Saat: 06:21 (21:21 UTC)

Tahmin

Rapor saat 17:00 UTC de 4 saat ve 21 dakika önce yapıldı.
Ayın 24'si saat 18 UTC'den ayın 25'si saat 18 UTC'ye kadar geçerli Tahmin
Rüzgar kuzeydan 8 kt
Görüş mesafesi 10 km veya daha fazla
1900 ft yükseklikte parçalı bulutlu

TAF: WAPP 241700Z 2418/2518 36008KT 9999 SCT019

4.000'den fazla havaalanı için hava durumu gözlemleri ve tahminleri (METAR ve TAF raporları).

Kullanılabilir istasyonlar harita üzerinde sarı ve kırmızı noktalarla gösterilir.

İstasyonun adını görmek için fareyi noktanın üzerinde gezdirin.

Sonrasında hava gözlem ve tahminlerini görmek için tıklayın.

Haritayı değiştirmek için: yaklaştırmak için siyah artı işaretli yeşil düğmeye ve uzaklaştırmak için de eksi işaretli düğmeye hızla tıklayın; bitişik haritalar için yeşil okları kullanın.


METAR-TAF: